sensor_id;sensor_type;location;lat;lon;timestamp;temperature;humidity
50570;DHT22;36525;49.398;7.614;2022-12-18T00:01:25;-9.20;99.90
50570;DHT22;36525;49.398;7.614;2022-12-18T00:03:55;-9.10;99.90
50570;DHT22;36525;49.398;7.614;2022-12-18T00:06:24;-9.10;99.90
50570;DHT22;36525;49.398;7.614;2022-12-18T00:08:53;-9.10;99.90
50570;DHT22;36525;49.398;7.614;2022-12-18T00:11:23;-9.10;99.90
50570;DHT22;36525;49.398;7.614;2022-12-18T00:13:52;-9.20;99.90
50570;DHT22;36525;49.398;7.614;2022-12-18T00:16:22;-9.20;99.90
50570;DHT22;36525;49.398;7.614;2022-12-18T00:18:52;-9.20;99.90
50570;DHT22;36525;49.398;7.614;2022-12-18T00:21:21;-9.20;99.90
50570;DHT22;36525;49.398;7.614;2022-12-18T00:23:49;-9.20;99.90
50570;DHT22;36525;49.398;7.614;2022-12-18T00:26:20;-9.20;99.90
50570;DHT22;36525;49.398;7.614;2022-12-18T00:28:49;-9.30;99.90
50570;DHT22;36525;49.398;7.614;2022-12-18T00:31:21;-9.20;99.90
50570;DHT22;36525;49.398;7.614;2022-12-18T00:33:50;-9.20;99.90
50570;DHT22;36525;49.398;7.614;2022-12-18T00:36:24;-9.20;99.90
50570;DHT22;36525;49.398;7.614;2022-12-18T00:38:54;-9.20;99.90
50570;DHT22;36525;49.398;7.614;2022-12-18T00:41:22;-9.10;99.90
50570;DHT22;36525;49.398;7.614;2022-12-18T00:44:10;-9.10;99.90
50570;DHT22;36525;49.398;7.614;2022-12-18T00:46:39;-9.20;99.90
50570;DHT22;36525;49.398;7.614;2022-12-18T00:49:07;-9.10;99.90
50570;DHT22;36525;49.398;7.614;2022-12-18T00:51:34;-9.00;99.90
50570;DHT22;36525;49.398;7.614;2022-12-18T00:54:01;-9.00;99.90
50570;DHT22;36525;49.398;7.614;2022-12-18T00:56:28;-9.00;99.90
50570;DHT22;36525;49.398;7.614;2022-12-18T00:58:55;-9.00;99.90
50570;DHT22;36525;49.398;7.614;2022-12-18T01:01:22;-9.00;99.90
50570;DHT22;36525;49.398;7.614;2022-12-18T01:03:49;-9.00;99.90
50570;DHT22;36525;49.398;7.614;2022-12-18T01:06:17;-9.00;99.90
50570;DHT22;36525;49.398;7.614;2022-12-18T01:08:44;-8.90;99.90
50570;DHT22;36525;49.398;7.614;2022-12-18T01:11:13;-9.00;99.90
50570;DHT22;36525;49.398;7.614;2022-12-18T01:13:42;-9.00;99.90
50570;DHT22;36525;49.398;7.614;2022-12-18T01:16:12;-9.00;99.90
50570;DHT22;36525;49.398;7.614;2022-12-18T01:18:41;-9.00;99.90
50570;DHT22;36525;49.398;7.614;2022-12-18T01:21:10;-9.10;99.90
50570;DHT22;36525;49.398;7.614;2022-12-18T01:23:38;-9.10;99.90
50570;DHT22;36525;49.398;7.614;2022-12-18T01:26:11;-9.10;99.90
50570;DHT22;36525;49.398;7.614;2022-12-18T01:28:40;-9.20;99.90
50570;DHT22;36525;49.398;7.614;2022-12-18T01:31:29;-9.30;99.90
50570;DHT22;36525;49.398;7.614;2022-12-18T01:33:57;-9.30;99.90
50570;DHT22;36525;49.398;7.614;2022-12-18T01:36:31;-9.40;99.90
50570;DHT22;36525;49.398;7.614;2022-12-18T01:39:06;-9.50;99.90
50570;DHT22;36525;49.398;7.614;2022-12-18T01:41:36;-9.50;99.90
50570;DHT22;36525;49.398;7.614;2022-12-18T01:47:42;-9.50;99.90
50570;DHT22;36525;49.398;7.614;2022-12-18T01:52:52;-9.50;99.90
50570;DHT22;36525;49.398;7.614;2022-12-18T01:55:23;-9.50;99.90
50570;DHT22;36525;49.398;7.614;2022-12-18T01:57:54;-9.40;99.90
50570;DHT22;36525;49.398;7.614;2022-12-18T02:00:24;-9.50;99.90
50570;DHT22;36525;49.398;7.614;2022-12-18T02:02:53;-9.50;99.90
50570;DHT22;36525;49.398;7.614;2022-12-18T02:05:29;-9.60;99.90
50570;DHT22;36525;49.398;7.614;2022-12-18T02:23:11;-9.80;99.90
50570;DHT22;36525;49.398;7.614;2022-12-18T02:25:57;-9.80;99.90
50570;DHT22;36525;49.398;7.614;2022-12-18T02:31:01;-9.70;99.90
50570;DHT22;36525;49.398;7.614;2022-12-18T02:33:30;-9.80;99.90
50570;DHT22;36525;49.398;7.614;2022-12-18T02:35:59;-9.80;99.90
50570;DHT22;36525;49.398;7.614;2022-12-18T02:38:27;-9.70;99.90
50570;DHT22;36525;49.398;7.614;2022-12-18T02:40:55;-9.70;99.90
50570;DHT22;36525;49.398;7.614;2022-12-18T02:43:23;-9.70;99.90
50570;DHT22;36525;49.398;7.614;2022-12-18T02:45:57;-9.70;99.90
50570;DHT22;36525;49.398;7.614;2022-12-18T02:48:32;-9.70;99.90
50570;DHT22;36525;49.398;7.614;2022-12-18T02:51:12;-9.70;99.90
50570;DHT22;36525;49.398;7.614;2022-12-18T02:53:53;-9.70;99.90
50570;DHT22;36525;49.398;7.614;2022-12-18T02:56:36;-9.80;99.90
50570;DHT22;36525;49.398;7.614;2022-12-18T02:59:12;-9.80;99.90
50570;DHT22;36525;49.398;7.614;2022-12-18T03:04:19;-9.70;99.90
50570;DHT22;36525;49.398;7.614;2022-12-18T03:06:57;-9.80;99.90
50570;DHT22;36525;49.398;7.614;2022-12-18T03:09:32;-9.80;99.90
50570;DHT22;36525;49.398;7.614;2022-12-18T03:12:28;-9.90;99.90
50570;DHT22;36525;49.398;7.614;2022-12-18T03:18:03;-9.90;99.90
50570;DHT22;36525;49.398;7.614;2022-12-18T03:20:34;-9.90;99.90
50570;DHT22;36525;49.398;7.614;2022-12-18T03:23:07;-9.90;99.90
50570;DHT22;36525;49.398;7.614;2022-12-18T03:25:41;-10.00;99.90
50570;DHT22;36525;49.398;7.614;2022-12-18T03:28:16;-10.00;99.90
50570;DHT22;36525;49.398;7.614;2022-12-18T03:30:46;-10.00;99.90
50570;DHT22;36525;49.398;7.614;2022-12-18T03:33:23;-10.00;99.90
50570;DHT22;36525;49.398;7.614;2022-12-18T03:35:52;-10.00;99.90
50570;DHT22;36525;49.398;7.614;2022-12-18T03:38:19;-10.00;99.90
50570;DHT22;36525;49.398;7.614;2022-12-18T03:43:46;-10.00;99.90
50570;DHT22;36525;49.398;7.614;2022-12-18T03:46:26;-10.10;99.90
50570;DHT22;36525;49.398;7.614;2022-12-18T03:49:28;-10.20;99.90
50570;DHT22;36525;49.398;7.614;2022-12-18T03:52:03;-10.20;99.90
50570;DHT22;36525;49.398;7.614;2022-12-18T03:54:33;-10.30;99.90
50570;DHT22;36525;49.398;7.614;2022-12-18T03:57:11;-10.40;99.90
50570;DHT22;36525;49.398;7.614;2022-12-18T03:59:44;-10.40;99.90
50570;DHT22;36525;49.398;7.614;2022-12-18T04:02:12;-10.40;99.90
50570;DHT22;36525;49.398;7.614;2022-12-18T04:04:40;-10.40;99.90
50570;DHT22;36525;49.398;7.614;2022-12-18T04:07:08;-10.40;99.90
50570;DHT22;36525;49.398;7.614;2022-12-18T04:09:36;-10.40;99.90
